createdAt,value
2023-04-08T00:00:13.650Z,0.00
2023-04-08T00:01:13.641Z,0.00
2023-04-08T00:02:13.742Z,0.00
2023-04-08T00:03:13.920Z,0.00
2023-04-08T00:04:13.796Z,0.00
2023-04-08T00:05:13.585Z,0.00
2023-04-08T00:06:13.597Z,0.00
2023-04-08T00:07:13.718Z,0.00
2023-04-08T00:08:13.609Z,0.00
2023-04-08T00:09:13.572Z,0.00
2023-04-08T00:10:13.531Z,0.00
2023-04-08T00:11:13.535Z,0.00
2023-04-08T00:12:13.536Z,0.00
2023-04-08T00:13:13.513Z,0.00
2023-04-08T00:14:13.530Z,0.00
2023-04-08T00:15:13.517Z,0.00
2023-04-08T00:16:13.508Z,0.00
2023-04-08T00:17:13.510Z,0.00
2023-04-08T00:18:13.467Z,0.00
2023-04-08T00:19:13.451Z,0.00
2023-04-08T00:20:13.477Z,0.00
2023-04-08T00:21:13.437Z,0.00
2023-04-08T00:22:13.418Z,0.00
2023-04-08T00:23:13.429Z,0.00
2023-04-08T00:24:13.399Z,0.00
2023-04-08T00:25:13.407Z,0.00
2023-04-08T00:26:13.378Z,0.00
2023-04-08T00:27:13.356Z,0.00
2023-04-08T00:28:13.395Z,0.00
2023-04-08T00:29:13.339Z,0.00
2023-04-08T00:30:13.341Z,0.00
2023-04-08T00:31:13.356Z,0.00
2023-04-08T00:32:13.327Z,0.00
2023-04-08T00:33:13.371Z,0.00
2023-04-08T00:34:13.257Z,0.00
2023-04-08T00:35:13.305Z,0.00
2023-04-08T00:36:13.263Z,0.00
2023-04-08T00:37:13.233Z,0.00
2023-04-08T00:38:13.217Z,0.00
2023-04-08T00:39:13.209Z,0.00
2023-04-08T00:40:13.203Z,0.00
2023-04-08T00:41:13.286Z,0.00
2023-04-08T00:42:13.156Z,0.00
2023-04-08T00:43:13.158Z,0.00
2023-04-08T00:44:13.177Z,0.00
2023-04-08T00:45:13.158Z,0.00
2023-04-08T00:46:13.154Z,0.00
2023-04-08T00:47:13.159Z,0.00
2023-04-08T00:48:13.107Z,0.00
2023-04-08T00:49:13.107Z,0.00
2023-04-08T00:50:13.092Z,0.00
2023-04-08T00:51:13.162Z,0.00
2023-04-08T00:52:13.068Z,0.00
2023-04-08T00:53:13.078Z,0.00
2023-04-08T00:54:13.066Z,0.00
2023-04-08T00:55:13.026Z,0.00
2023-04-08T00:56:13.053Z,0.00
2023-04-08T00:57:12.976Z,0.00
2023-04-08T00:58:12.975Z,0.00
2023-04-08T00:59:12.953Z,0.00
2023-04-08T01:00:12.949Z,0.00
2023-04-08T01:01:12.990Z,0.00
2023-04-08T01:02:13.198Z,0.00
2023-04-08T01:03:13.056Z,0.00
2023-04-08T01:04:12.972Z,0.00
2023-04-08T01:05:12.887Z,0.00
2023-04-08T01:06:12.900Z,0.00
2023-04-08T01:07:12.879Z,0.00
2023-04-08T01:08:12.856Z,0.00
2023-04-08T01:09:12.859Z,0.00
2023-04-08T01:10:12.853Z,0.00
2023-04-08T01:11:12.844Z,0.00
2023-04-08T01:12:12.820Z,0.00
2023-04-08T01:13:12.799Z,0.00
2023-04-08T01:14:12.795Z,0.00
2023-04-08T01:15:12.781Z,0.00
2023-04-08T01:16:12.881Z,0.00
2023-04-08T01:17:12.757Z,0.00
2023-04-08T01:18:12.778Z,0.00
2023-04-08T01:19:12.726Z,0.00
2023-04-08T01:20:12.726Z,0.00
2023-04-08T01:21:12.751Z,0.00
2023-04-08T01:22:12.702Z,0.00
2023-04-08T01:23:12.680Z,0.00
2023-04-08T01:24:12.683Z,0.00
2023-04-08T01:25:12.672Z,0.00
2023-04-08T01:26:12.691Z,0.00
2023-04-08T01:27:12.638Z,0.00
2023-04-08T01:28:12.638Z,0.00
2023-04-08T01:29:12.625Z,0.00
2023-04-08T01:30:12.619Z,0.00
2023-04-08T01:31:12.649Z,0.00
2023-04-08T01:32:12.609Z,0.00
2023-04-08T01:33:12.585Z,0.00
2023-04-08T01:34:12.564Z,0.00
2023-04-08T01:35:12.559Z,0.00
2023-04-08T01:36:12.566Z,0.00
2023-04-08T01:37:12.533Z,0.00
2023-04-08T01:38:12.554Z,0.00
2023-04-08T01:39:12.508Z,0.00
2023-04-08T01:40:12.517Z,0.00
2023-04-08T01:41:12.515Z,0.00
2023-04-08T01:42:12.489Z,0.00
2023-04-08T01:43:12.466Z,0.00
2023-04-08T01:44:12.462Z,0.00
2023-04-08T01:45:12.450Z,0.00
2023-04-08T01:46:12.485Z,0.00
2023-04-08T01:47:12.441Z,0.00
2023-04-08T01:48:12.418Z,0.00
2023-04-08T01:49:12.407Z,0.00
2023-04-08T01:50:12.410Z,0.00
2023-04-08T01:51:12.406Z,0.00
2023-04-08T01:52:12.376Z,0.00
2023-04-08T01:53:12.392Z,0.00
2023-04-08T01:54:12.368Z,0.00
2023-04-08T01:55:12.346Z,0.00
2023-04-08T01:56:12.361Z,0.00
2023-04-08T01:57:12.336Z,0.00
2023-04-08T01:58:12.317Z,0.00
2023-04-08T01:59:12.303Z,0.00
2023-04-08T02:00:12.305Z,0.00
2023-04-08T02:01:12.300Z,0.00
2023-04-08T02:02:12.327Z,0.00
2023-04-08T02:03:12.443Z,0.00
2023-04-08T02:04:12.278Z,0.00
2023-04-08T02:05:12.234Z,0.00
2023-04-08T02:06:12.302Z,0.00
2023-04-08T02:07:12.227Z,0.00
2023-04-08T02:08:12.221Z,0.00
2023-04-08T02:09:12.236Z,0.00
2023-04-08T02:10:12.222Z,0.00
2023-04-08T02:11:12.251Z,0.00
2023-04-08T02:12:12.182Z,0.00
2023-04-08T02:13:12.183Z,0.00
2023-04-08T02:14:12.139Z,0.00
2023-04-08T02:15:12.172Z,0.00
2023-04-08T02:16:12.190Z,0.00
2023-04-08T02:17:12.110Z,0.00
2023-04-08T02:18:12.170Z,0.00
2023-04-08T02:19:12.147Z,0.00
2023-04-08T02:20:12.090Z,0.00
2023-04-08T02:21:12.104Z,0.00
2023-04-08T02:22:12.063Z,0.00
2023-04-08T02:23:12.082Z,0.00
2023-04-08T02:24:12.042Z,0.00
2023-04-08T02:25:12.030Z,0.00
2023-04-08T02:26:12.032Z,0.00
2023-04-08T02:27:12.015Z,0.00
2023-04-08T02:28:11.994Z,0.00
2023-04-08T02:29:11.999Z,0.00
2023-04-08T02:30:11.977Z,0.00
2023-04-08T02:31:12.056Z,0.00
2023-04-08T02:32:11.963Z,0.00
2023-04-08T02:33:12.000Z,0.00
2023-04-08T02:34:11.931Z,0.00
2023-04-08T02:35:11.963Z,0.00
2023-04-08T02:36:11.957Z,0.00
2023-04-08T02:37:11.892Z,0.00
2023-04-08T02:38:11.879Z,0.00
2023-04-08T02:39:11.891Z,0.00
2023-04-08T02:40:11.855Z,0.00
2023-04-08T02:41:11.924Z,0.00
2023-04-08T02:42:12.056Z,0.00
2023-04-08T02:43:11.818Z,0.00
2023-04-08T02:44:11.814Z,0.00
2023-04-08T02:45:11.818Z,0.00
2023-04-08T02:46:11.893Z,0.00
2023-04-08T02:47:11.800Z,0.00
2023-04-08T02:48:11.774Z,0.00
2023-04-08T02:49:11.795Z,0.00
2023-04-08T02:50:11.738Z,0.00
2023-04-08T02:51:11.797Z,0.00
2023-04-08T02:52:11.750Z,0.00
2023-04-08T02:53:11.729Z,0.00
2023-04-08T02:54:11.719Z,0.00
2023-04-08T02:55:11.684Z,0.00
2023-04-08T02:56:11.738Z,0.00
2023-04-08T02:57:11.671Z,0.00
2023-04-08T02:58:11.645Z,0.00
2023-04-08T02:59:11.662Z,0.00
2023-04-08T03:00:11.662Z,0.00
2023-04-08T03:01:11.664Z,0.00
2023-04-08T03:02:11.684Z,0.00
2023-04-08T03:03:11.849Z,0.00
2023-04-08T03:04:11.588Z,0.00
2023-04-08T03:05:11.579Z,0.00
2023-04-08T03:06:11.608Z,0.00
2023-04-08T03:07:11.602Z,0.00
2023-04-08T03:08:11.558Z,0.00
2023-04-08T03:09:11.545Z,0.00
2023-04-08T03:10:12.398Z,0.00
2023-04-08T03:11:11.544Z,0.00
2023-04-08T03:12:11.509Z,0.00
2023-04-08T03:13:11.518Z,0.00
2023-04-08T03:14:11.510Z,0.00
2023-04-08T03:15:11.473Z,0.00
2023-04-08T03:16:11.501Z,0.00
2023-04-08T03:17:11.469Z,0.00
2023-04-08T03:18:11.434Z,0.00
2023-04-08T03:19:11.423Z,0.00
2023-04-08T03:20:11.429Z,0.00
2023-04-08T03:21:11.466Z,0.00
2023-04-08T03:22:11.406Z,0.00
2023-04-08T03:23:11.371Z,0.00
2023-04-08T03:24:11.349Z,0.00
2023-04-08T03:25:11.367Z,0.00
2023-04-08T03:26:11.372Z,0.00
2023-04-08T03:27:11.325Z,0.00
2023-04-08T03:28:11.401Z,0.00
2023-04-08T03:29:11.316Z,0.00
2023-04-08T03:30:11.292Z,0.00
2023-04-08T03:31:11.347Z,0.00
2023-04-08T03:32:11.407Z,0.00
2023-04-08T03:33:11.360Z,0.00
2023-04-08T03:34:11.292Z,0.00
2023-04-08T03:35:11.265Z,0.00
2023-04-08T03:36:11.286Z,0.00
2023-04-08T03:37:11.242Z,0.00
2023-04-08T03:38:11.217Z,0.00
2023-04-08T03:39:11.249Z,0.00
2023-04-08T03:40:11.182Z,0.00
2023-04-08T03:41:11.197Z,0.00
2023-04-08T03:42:11.166Z,0.00
2023-04-08T03:43:11.142Z,0.00
2023-04-08T03:44:11.149Z,0.00
2023-04-08T03:45:11.155Z,0.00
2023-04-08T03:46:11.226Z,0.00
2023-04-08T03:47:11.127Z,0.00
2023-04-08T03:48:11.088Z,0.00
2023-04-08T03:49:11.100Z,0.00
2023-04-08T03:50:11.061Z,0.00
2023-04-08T03:51:11.122Z,0.00
2023-04-08T03:52:11.040Z,0.00
2023-04-08T03:53:11.025Z,0.00
2023-04-08T03:54:11.030Z,0.00
2023-04-08T03:55:11.001Z,0.00
2023-04-08T03:56:11.056Z,0.00
2023-04-08T03:57:11.000Z,0.00
2023-04-08T03:58:11.012Z,0.00
2023-04-08T03:59:10.974Z,0.00
2023-04-08T04:00:10.964Z,0.00
2023-04-08T04:01:10.978Z,0.00
2023-04-08T04:02:10.996Z,0.00
2023-04-08T04:03:11.034Z,0.00
2023-04-08T04:04:11.200Z,0.00
2023-04-08T04:05:10.925Z,0.00
2023-04-08T04:06:10.944Z,0.00
2023-04-08T04:07:10.904Z,0.00
2023-04-08T04:08:10.865Z,0.00
2023-04-08T04:09:10.858Z,0.00
2023-04-08T04:10:10.878Z,0.00
2023-04-08T04:11:10.867Z,0.00
2023-04-08T04:12:10.840Z,0.00
2023-04-08T04:13:10.794Z,0.00
2023-04-08T04:14:10.851Z,0.00
2023-04-08T04:15:10.809Z,0.00
2023-04-08T04:16:10.852Z,0.00
2023-04-08T04:17:10.761Z,0.00
2023-04-08T04:18:10.869Z,0.00
2023-04-08T04:19:10.791Z,0.00
2023-04-08T04:20:10.813Z,0.00
2023-04-08T04:21:10.757Z,0.00
2023-04-08T04:22:10.784Z,0.00
2023-04-08T04:23:10.697Z,0.00
2023-04-08T04:24:10.688Z,0.00
2023-04-08T04:25:10.683Z,0.00
2023-04-08T04:26:10.701Z,0.00
2023-04-08T04:27:10.684Z,4.00
2023-04-08T04:28:10.641Z,0.00
2023-04-08T04:29:10.689Z,4.00
2023-04-08T04:30:10.644Z,0.00
2023-04-08T04:31:10.906Z,4.00
2023-04-08T04:32:10.583Z,4.00
2023-04-08T04:33:10.571Z,4.00
2023-04-08T04:34:10.561Z,8.00
2023-04-08T04:35:10.620Z,8.00
2023-04-08T04:36:10.588Z,12.00
2023-04-08T04:37:10.545Z,12.00
2023-04-08T04:38:10.560Z,12.00
2023-04-08T04:39:10.512Z,20.00
2023-04-08T04:40:10.536Z,20.00
2023-04-08T04:41:10.511Z,20.00
2023-04-08T04:42:10.509Z,28.00
2023-04-08T04:43:10.480Z,28.00
2023-04-08T04:44:10.460Z,32.00
2023-04-08T04:45:10.453Z,36.00
2023-04-08T04:46:10.473Z,36.00
2023-04-08T04:47:10.408Z,44.00
2023-04-08T04:48:10.402Z,44.00
2023-04-08T04:49:10.384Z,52.00
2023-04-08T04:50:10.380Z,56.00
2023-04-08T04:51:10.390Z,64.00
2023-04-08T04:52:10.376Z,68.00
2023-04-08T04:53:10.347Z,72.00
2023-04-08T04:54:10.319Z,80.00
2023-04-08T04:55:10.324Z,84.00
2023-04-08T04:56:10.327Z,84.00
2023-04-08T04:57:10.304Z,92.00
2023-04-08T04:58:10.276Z,96.00
2023-04-08T04:59:10.273Z,100.00
2023-04-08T05:00:10.266Z,108.00
2023-04-08T05:01:10.300Z,108.00
2023-04-08T05:02:10.333Z,112.00
2023-04-08T05:03:10.449Z,120.00
2023-04-08T05:04:10.213Z,124.00
2023-04-08T05:05:10.241Z,132.00
2023-04-08T05:06:10.215Z,144.00
2023-04-08T05:07:10.275Z,152.00
2023-04-08T05:08:10.167Z,164.00
2023-04-08T05:09:10.169Z,176.00
2023-04-08T05:10:10.154Z,188.00
2023-04-08T05:11:10.171Z,208.00
2023-04-08T05:12:10.134Z,232.00
2023-04-08T05:13:10.132Z,256.00
2023-04-08T05:14:10.160Z,292.00
2023-04-08T05:15:10.188Z,324.00
2023-04-08T05:16:10.310Z,356.00
2023-04-08T05:17:10.078Z,388.00
2023-04-08T05:18:10.148Z,412.00
2023-04-08T05:19:10.060Z,428.00
2023-04-08T05:20:10.044Z,440.00
2023-04-08T05:21:10.102Z,440.00
2023-04-08T05:22:10.025Z,448.00
2023-04-08T05:23:10.016Z,452.00
2023-04-08T05:24:10.011Z,460.00
2023-04-08T05:25:09.996Z,468.00
2023-04-08T05:26:10.001Z,476.00
2023-04-08T05:27:10.010Z,504.00
2023-04-08T05:28:09.958Z,540.00
2023-04-08T05:29:09.946Z,568.00
2023-04-08T05:30:09.948Z,592.00
2023-04-08T05:31:09.995Z,592.00
2023-04-08T05:32:09.926Z,576.00
2023-04-08T05:33:09.944Z,556.00
2023-04-08T05:34:09.893Z,544.00
2023-04-08T05:35:09.913Z,544.00
2023-04-08T05:36:09.899Z,572.00
2023-04-08T05:37:09.865Z,628.00
2023-04-08T05:38:09.847Z,708.00
2023-04-08T05:39:09.870Z,812.00
2023-04-08T05:40:09.877Z,900.00
2023-04-08T05:41:09.835Z,964.00
2023-04-08T05:42:09.829Z,1028.00
2023-04-08T05:43:09.791Z,1076.00
2023-04-08T05:44:09.790Z,1124.00
2023-04-08T05:45:09.773Z,1164.00
2023-04-08T05:46:09.788Z,1204.00
2023-04-08T05:47:09.898Z,1216.00
2023-04-08T05:48:09.764Z,1244.00
2023-04-08T05:49:09.736Z,1292.00
2023-04-08T05:50:09.717Z,1352.00
2023-04-08T05:51:09.751Z,1452.00
2023-04-08T05:52:09.695Z,1532.00
2023-04-08T05:53:09.689Z,1584.00
2023-04-08T05:54:09.674Z,1652.00
2023-04-08T05:55:09.660Z,1704.00
2023-04-08T05:56:09.660Z,1708.00
2023-04-08T05:57:10.517Z,1612.00
2023-04-08T05:58:09.625Z,1572.00
2023-04-08T05:59:09.620Z,1612.00
2023-04-08T06:00:09.637Z,1644.00
2023-04-08T06:01:09.604Z,1668.00
2023-04-08T06:02:09.634Z,1704.00
2023-04-08T06:03:09.665Z,1744.00
2023-04-08T06:04:09.676Z,1760.00
2023-04-08T06:05:09.544Z,1740.00
2023-04-08T06:06:09.557Z,1724.00
2023-04-08T06:07:09.532Z,1732.00
2023-04-08T06:08:09.496Z,1760.00
2023-04-08T06:09:09.534Z,1792.00
2023-04-08T06:10:09.495Z,1828.00
2023-04-08T06:11:09.493Z,1860.00
2023-04-08T06:12:09.453Z,1900.00
2023-04-08T06:13:09.525Z,1936.00
2023-04-08T06:14:09.438Z,1964.00
2023-04-08T06:15:09.436Z,1984.00
2023-04-08T06:16:09.455Z,2000.00
2023-04-08T06:17:09.502Z,2036.00
2023-04-08T06:18:09.390Z,2108.00
2023-04-08T06:19:09.371Z,2188.00
2023-04-08T06:20:09.382Z,2280.00
2023-04-08T06:21:09.437Z,2392.00
2023-04-08T06:22:09.339Z,2480.00
2023-04-08T06:23:09.370Z,2536.00
2023-04-08T06:24:09.342Z,2568.00
2023-04-08T06:25:09.310Z,2572.00
2023-04-08T06:26:09.331Z,2568.00
2023-04-08T06:27:09.278Z,2572.00
2023-04-08T06:28:09.277Z,2568.00
2023-04-08T06:29:09.266Z,2520.00
2023-04-08T06:30:09.249Z,2456.00
2023-04-08T06:31:09.254Z,2400.00
2023-04-08T06:32:09.264Z,2324.00
2023-04-08T06:33:09.264Z,2220.00
2023-04-08T06:34:09.211Z,2152.00
2023-04-08T06:35:09.197Z,2108.00
2023-04-08T06:36:09.255Z,2104.00
2023-04-08T06:37:09.180Z,2112.00
2023-04-08T06:38:09.165Z,2220.00
2023-04-08T06:39:09.139Z,2444.00
2023-04-08T06:40:09.144Z,2272.00
2023-04-08T06:41:09.167Z,2396.00
2023-04-08T06:42:09.115Z,2400.00
2023-04-08T06:43:09.095Z,2384.00
2023-04-08T06:44:09.089Z,2360.00
2023-04-08T06:45:09.076Z,2404.00
2023-04-08T06:46:09.327Z,2472.00
2023-04-08T06:47:09.054Z,2544.00
2023-04-08T06:48:09.050Z,2608.00
2023-04-08T06:49:09.029Z,2660.00
2023-04-08T06:50:09.039Z,2744.00
2023-04-08T06:51:09.041Z,2832.00
2023-04-08T06:52:09.004Z,3020.00
2023-04-08T06:53:08.988Z,3856.00
2023-04-08T06:54:08.981Z,4352.00
2023-04-08T06:55:08.966Z,3588.00
2023-04-08T06:56:08.978Z,3564.00
2023-04-08T06:57:08.949Z,3568.00
2023-04-08T06:58:08.942Z,3428.00
2023-04-08T06:59:09.268Z,3224.00
2023-04-08T07:00:08.915Z,3092.00
2023-04-08T07:01:08.964Z,2948.00
2023-04-08T07:02:08.929Z,2760.00
2023-04-08T07:03:08.934Z,2676.00
2023-04-08T07:04:08.889Z,3044.00
2023-04-08T07:05:08.855Z,3332.00
2023-04-08T07:06:08.881Z,3460.00
2023-04-08T07:07:08.829Z,3588.00
2023-04-08T07:08:08.830Z,4340.00
2023-04-08T07:09:08.842Z,3280.00
2023-04-08T07:10:10.951Z,3408.00
2023-04-08T07:11:08.796Z,3068.00
2023-04-08T07:12:08.779Z,2928.00
2023-04-08T07:13:08.775Z,2840.00
2023-04-08T07:14:08.757Z,2792.00
2023-04-08T07:15:08.762Z,2728.00
2023-04-08T07:16:08.751Z,2692.00
2023-04-08T07:17:08.781Z,2640.00
2023-04-08T07:18:08.723Z,2572.00
2023-04-08T07:19:08.698Z,2536.00
2023-04-08T07:20:08.698Z,2516.00
2023-04-08T07:21:08.688Z,2548.00
2023-04-08T07:22:08.667Z,2568.00
2023-04-08T07:23:08.654Z,2528.00
2023-04-08T07:24:08.653Z,2472.00
2023-04-08T07:25:08.628Z,2404.00
2023-04-08T07:26:08.640Z,2372.00
2023-04-08T07:27:08.602Z,2360.00
2023-04-08T07:28:08.597Z,2332.00
2023-04-08T07:29:08.586Z,2300.00
2023-04-08T07:30:08.580Z,2300.00
2023-04-08T07:31:08.652Z,2344.00
2023-04-08T07:32:08.555Z,2424.00
2023-04-08T07:33:08.680Z,2500.00
2023-04-08T07:34:08.519Z,2596.00
2023-04-08T07:35:08.521Z,2708.00
2023-04-08T07:36:08.518Z,2808.00
2023-04-08T07:37:08.492Z,2844.00
2023-04-08T07:38:08.532Z,2836.00
2023-04-08T07:39:08.470Z,2852.00
2023-04-08T07:40:08.457Z,2920.00
2023-04-08T07:41:08.486Z,3000.00
2023-04-08T07:42:08.435Z,3064.00
2023-04-08T07:43:08.425Z,3100.00
2023-04-08T07:44:08.414Z,3164.00
2023-04-08T07:45:08.401Z,3240.00
2023-04-08T07:46:08.415Z,3240.00
2023-04-08T07:47:08.373Z,3128.00
2023-04-08T07:48:08.413Z,2948.00
2023-04-08T07:49:08.353Z,2792.00
2023-04-08T07:50:08.350Z,2724.00
2023-04-08T07:51:10.893Z,2652.00
2023-04-08T07:52:08.326Z,2528.00
2023-04-08T07:53:08.311Z,2376.00
2023-04-08T07:54:08.335Z,2260.00
2023-04-08T07:55:08.282Z,2184.00
2023-04-08T07:56:08.340Z,2152.00
2023-04-08T07:57:08.265Z,2160.00
2023-04-08T07:58:08.261Z,2240.00
2023-04-08T07:59:08.234Z,2384.00
2023-04-08T08:00:08.237Z,2548.00
2023-04-08T08:01:08.264Z,2704.00
2023-04-08T08:02:08.258Z,2856.00
2023-04-08T08:03:08.317Z,3012.00
2023-04-08T08:04:08.257Z,3228.00
2023-04-08T08:05:08.234Z,3372.00
2023-04-08T08:06:08.181Z,3532.00
2023-04-08T08:07:08.148Z,3764.00
2023-04-08T08:08:08.142Z,3940.00
2023-04-08T08:09:08.143Z,4180.00
2023-04-08T08:10:08.126Z,5168.00
2023-04-08T08:11:08.129Z,4564.00
2023-04-08T08:12:08.116Z,4584.00
2023-04-08T08:13:08.107Z,4252.00
2023-04-08T08:14:08.093Z,4072.00
2023-04-08T08:15:08.066Z,4004.00
2023-04-08T08:16:08.125Z,3984.00
2023-04-08T08:17:08.034Z,4116.00
2023-04-08T08:18:08.081Z,4412.00
2023-04-08T08:19:08.011Z,4656.00
2023-04-08T08:20:08.008Z,4704.00
2023-04-08T08:21:08.053Z,4520.00
2023-04-08T08:22:07.998Z,4424.00
2023-04-08T08:23:07.983Z,4432.00
2023-04-08T08:24:07.972Z,4260.00
2023-04-08T08:25:07.953Z,3940.00
2023-04-08T08:26:07.958Z,3620.00
2023-04-08T08:27:07.939Z,3372.00
2023-04-08T08:28:07.917Z,3104.00
2023-04-08T08:29:07.900Z,2804.00
2023-04-08T08:30:07.904Z,2568.00
2023-04-08T08:31:07.949Z,2444.00
2023-04-08T08:32:07.872Z,2444.00
2023-04-08T08:33:08.039Z,2572.00
2023-04-08T08:34:07.847Z,2840.00
2023-04-08T08:35:07.843Z,3164.00
2023-04-08T08:36:07.892Z,3496.00
2023-04-08T08:37:07.810Z,3808.00
2023-04-08T08:38:07.800Z,4112.00
2023-04-08T08:39:07.793Z,4340.00
2023-04-08T08:40:07.796Z,4456.00
2023-04-08T08:41:07.842Z,4552.00
2023-04-08T08:42:07.759Z,4704.00
2023-04-08T08:43:07.752Z,4864.00
2023-04-08T08:44:07.740Z,5004.00
2023-04-08T08:45:07.728Z,5092.00
2023-04-08T08:46:08.122Z,5180.00
2023-04-08T08:47:07.708Z,5288.00
2023-04-08T08:48:07.703Z,5380.00
2023-04-08T08:49:07.700Z,5480.00
2023-04-08T08:50:07.684Z,5560.00
2023-04-08T08:51:07.648Z,5596.00
2023-04-08T08:52:07.670Z,5576.00
2023-04-08T08:53:07.631Z,5488.00
2023-04-08T08:54:07.635Z,5268.00
2023-04-08T08:55:21.481Z,4956.00
2023-04-08T08:56:17.798Z,4660.00
2023-04-08T08:57:07.629Z,4384.00
2023-04-08T08:58:07.583Z,4196.00
2023-04-08T08:59:07.591Z,4032.00
2023-04-08T09:00:07.552Z,3836.00
2023-04-08T09:01:07.539Z,3612.00
2023-04-08T09:02:07.636Z,3424.00
2023-04-08T09:03:07.712Z,3296.00
2023-04-08T09:04:07.647Z,3264.00
2023-04-08T09:05:07.626Z,3356.00
2023-04-08T09:06:07.497Z,3472.00
2023-04-08T09:07:07.486Z,3688.00
2023-04-08T09:08:07.467Z,4000.00
2023-04-08T09:09:07.469Z,4396.00
2023-04-08T09:10:07.438Z,4748.00
2023-04-08T09:11:07.456Z,4996.00
2023-04-08T09:12:07.418Z,5004.00
2023-04-08T09:13:07.436Z,4836.00
2023-04-08T09:14:07.397Z,4476.00
2023-04-08T09:15:07.384Z,4372.00
2023-04-08T09:16:07.409Z,4296.00
2023-04-08T09:17:07.361Z,3984.00
2023-04-08T09:18:07.397Z,3760.00
2023-04-08T09:19:07.342Z,3728.00
2023-04-08T09:20:07.325Z,3736.00
2023-04-08T09:21:07.303Z,3792.00
2023-04-08T09:22:07.305Z,3796.00
2023-04-08T09:23:07.283Z,4092.00
2023-04-08T09:24:07.301Z,5040.00
2023-04-08T09:25:07.259Z,6040.00
2023-04-08T09:26:07.255Z,6644.00
2023-04-08T09:27:07.244Z,7048.00
2023-04-08T09:28:07.242Z,7468.00
2023-04-08T09:29:24.140Z,7924.00
2023-04-08T09:30:07.264Z,6912.00
2023-04-08T09:31:07.195Z,6000.00
2023-04-08T09:32:07.245Z,5772.00
2023-04-08T09:33:07.363Z,5684.00
2023-04-08T09:34:07.172Z,5700.00
2023-04-08T09:35:07.162Z,5524.00
2023-04-08T09:36:07.225Z,5196.00
2023-04-08T09:37:07.303Z,5136.00
2023-04-08T09:38:07.129Z,5240.00
2023-04-08T09:39:07.113Z,5408.00
2023-04-08T09:40:07.100Z,5624.00
2023-04-08T09:41:07.110Z,5864.00
2023-04-08T09:42:07.100Z,6004.00
2023-04-08T09:43:07.085Z,5748.00
2023-04-08T09:44:07.083Z,5180.00
2023-04-08T09:45:07.049Z,4728.00
2023-04-08T09:46:07.073Z,4632.00
2023-04-08T09:47:07.049Z,4524.00
2023-04-08T09:48:07.069Z,4400.00
2023-04-08T09:49:07.010Z,4368.00
2023-04-08T09:50:06.983Z,4092.00
2023-04-08T09:51:06.978Z,4296.00
2023-04-08T09:52:06.972Z,4988.00
2023-04-08T09:53:06.984Z,5424.00
2023-04-08T09:54:06.943Z,5300.00
2023-04-08T09:55:06.945Z,4516.00
2023-04-08T09:56:06.954Z,4032.00
2023-04-08T09:57:06.917Z,4180.00
2023-04-08T09:58:06.927Z,4556.00
2023-04-08T09:59:06.966Z,4736.00
2023-04-08T10:00:06.894Z,4436.00
2023-04-08T10:01:06.921Z,3868.00
2023-04-08T10:02:07.021Z,3416.00
2023-04-08T10:03:07.121Z,3320.00
2023-04-08T10:04:06.904Z,3284.00
2023-04-08T10:05:08.273Z,3116.00
2023-04-08T10:06:06.810Z,3112.00
2023-04-08T10:07:06.793Z,3472.00
2023-04-08T10:08:06.788Z,4252.00
2023-04-08T10:09:06.773Z,5016.00
2023-04-08T10:10:06.803Z,5404.00
2023-04-08T10:11:06.765Z,5572.00
2023-04-08T10:12:06.747Z,5264.00
2023-04-08T10:13:06.764Z,5184.00
2023-04-08T10:14:06.749Z,5288.00
2023-04-08T10:15:06.738Z,5444.00
2023-04-08T10:16:07.619Z,5752.00
2023-04-08T10:17:06.879Z,5860.00
2023-04-08T10:18:06.713Z,6136.00
2023-04-08T10:19:06.673Z,6384.00
2023-04-08T10:20:06.668Z,6360.00
2023-04-08T10:21:06.662Z,6436.00
2023-04-08T10:22:07.958Z,6480.00
2023-04-08T10:23:06.628Z,6148.00
2023-04-08T10:24:06.632Z,5844.00
2023-04-08T10:25:06.601Z,5752.00
2023-04-08T10:26:06.616Z,5696.00
2023-04-08T10:27:06.599Z,5536.00
2023-04-08T10:28:07.555Z,5816.00
2023-04-08T10:29:06.540Z,6344.00
2023-04-08T10:30:06.538Z,6688.00
2023-04-08T10:31:06.522Z,6856.00
2023-04-08T10:32:06.601Z,6692.00
2023-04-08T10:33:06.581Z,6400.00
2023-04-08T10:34:06.504Z,6252.00
2023-04-08T10:35:06.469Z,6220.00
2023-04-08T10:36:06.531Z,6116.00
2023-04-08T10:37:06.533Z,5816.00
2023-04-08T10:38:06.441Z,5688.00
2023-04-08T10:39:06.440Z,5968.00
2023-04-08T10:40:06.419Z,6420.00
2023-04-08T10:41:06.405Z,7016.00
2023-04-08T10:42:06.423Z,7540.00
2023-04-08T10:43:06.385Z,8032.00
2023-04-08T10:44:06.367Z,8760.00
2023-04-08T10:45:06.372Z,8840.00
2023-04-08T10:46:06.390Z,8484.00
2023-04-08T10:47:06.357Z,8036.00
2023-04-08T10:48:06.318Z,7792.00
2023-04-08T10:49:06.310Z,7676.00
2023-04-08T10:50:06.303Z,7496.00
2023-04-08T10:51:06.325Z,7516.00
2023-04-08T10:52:06.298Z,7268.00
2023-04-08T10:53:06.266Z,6828.00
2023-04-08T10:54:06.248Z,6760.00
2023-04-08T10:55:06.248Z,6836.00
2023-04-08T10:56:06.268Z,7064.00
2023-04-08T10:57:06.238Z,7076.00
2023-04-08T10:58:06.203Z,6900.00
2023-04-08T10:59:06.199Z,6824.00
2023-04-08T11:00:06.199Z,6712.00
2023-04-08T11:01:06.232Z,6652.00
2023-04-08T11:02:06.265Z,6732.00
2023-04-08T11:03:06.288Z,6836.00
2023-04-08T11:04:06.311Z,6920.00
2023-04-08T11:05:06.132Z,6988.00
2023-04-08T11:06:06.124Z,6932.00
2023-04-08T11:07:06.127Z,6688.00
2023-04-08T11:08:06.100Z,6632.00
2023-04-08T11:09:06.087Z,6732.00
2023-04-08T11:10:06.081Z,6920.00
2023-04-08T11:11:06.070Z,7472.00
2023-04-08T11:12:06.062Z,7548.00
2023-04-08T11:13:06.037Z,8024.00
2023-04-08T11:14:06.036Z,8072.00
2023-04-08T11:15:06.043Z,7600.00
2023-04-08T11:16:16.966Z,7976.00
2023-04-08T11:17:06.048Z,7948.00
2023-04-08T11:18:06.024Z,7252.00
2023-04-08T11:19:05.999Z,7096.00
2023-04-08T11:20:05.967Z,7124.00
2023-04-08T11:21:05.977Z,7176.00
2023-04-08T11:22:05.963Z,7316.00
2023-04-08T11:23:05.937Z,7112.00
2023-04-08T11:24:05.913Z,6992.00
2023-04-08T11:25:05.912Z,7160.00
2023-04-08T11:26:06.400Z,8132.00
2023-04-08T11:27:05.913Z,6808.00
2023-04-08T11:28:05.875Z,6860.00
2023-04-08T11:29:05.877Z,6728.00
2023-04-08T11:30:05.851Z,6600.00
2023-04-08T11:31:06.054Z,6496.00
2023-04-08T11:32:05.827Z,6452.00
2023-04-08T11:33:05.858Z,6460.00
2023-04-08T11:34:05.799Z,6444.00
2023-04-08T11:35:05.800Z,6164.00
2023-04-08T11:36:05.876Z,5856.00
2023-04-08T11:37:05.769Z,5796.00
2023-04-08T11:38:05.797Z,5908.00
2023-04-08T11:39:05.746Z,5988.00
2023-04-08T11:40:05.746Z,6124.00
2023-04-08T11:41:05.724Z,6192.00
2023-04-08T11:42:05.707Z,6116.00
2023-04-08T11:43:05.699Z,6048.00
2023-04-08T11:44:05.706Z,6028.00
2023-04-08T11:45:05.677Z,5952.00
2023-04-08T11:46:05.681Z,5772.00
2023-04-08T11:47:05.661Z,5624.00
2023-04-08T11:48:05.670Z,5492.00
2023-04-08T11:49:05.840Z,5436.00
2023-04-08T11:50:05.629Z,5472.00
2023-04-08T11:51:05.608Z,5472.00
2023-04-08T11:52:05.591Z,5464.00
2023-04-08T11:53:05.586Z,5576.00
2023-04-08T11:54:05.573Z,5716.00
2023-04-08T11:55:05.582Z,5904.00
2023-04-08T11:56:05.554Z,6100.00
2023-04-08T11:57:05.550Z,6296.00
2023-04-08T11:58:05.530Z,6500.00
2023-04-08T11:59:05.525Z,6488.00
2023-04-08T12:00:05.530Z,6396.00
2023-04-08T12:01:05.496Z,6380.00
2023-04-08T12:02:05.524Z,6340.00
2023-04-08T12:03:05.542Z,6232.00
2023-04-08T12:04:05.524Z,6080.00
2023-04-08T12:05:05.511Z,6032.00
2023-04-08T12:06:05.460Z,5956.00
2023-04-08T12:07:05.440Z,5868.00
2023-04-08T12:08:05.433Z,5808.00
2023-04-08T12:09:05.414Z,5680.00
2023-04-08T12:10:05.409Z,5336.00
2023-04-08T12:11:18.651Z,4876.00
2023-04-08T12:12:05.407Z,4476.00
2023-04-08T12:13:05.363Z,4236.00
2023-04-08T12:14:05.349Z,4140.00
2023-04-08T12:15:05.347Z,4108.00
2023-04-08T12:16:05.354Z,4156.00
2023-04-08T12:17:05.313Z,4288.00
2023-04-08T12:18:05.380Z,4456.00
2023-04-08T12:19:05.301Z,4704.00
2023-04-08T12:20:05.285Z,4968.00
2023-04-08T12:21:05.271Z,5196.00
2023-04-08T12:22:05.255Z,5332.00
2023-04-08T12:23:05.287Z,5384.00
2023-04-08T12:24:05.236Z,5436.00
2023-04-08T12:25:05.232Z,5544.00
2023-04-08T12:26:05.221Z,5636.00
2023-04-08T12:27:05.241Z,5652.00
2023-04-08T12:28:05.188Z,5608.00
2023-04-08T12:29:05.209Z,5524.00
2023-04-08T12:30:05.176Z,5492.00
2023-04-08T12:31:05.185Z,5584.00
2023-04-08T12:32:05.147Z,5804.00
2023-04-08T12:33:05.179Z,6004.00